sensor_id;sensor_type;location;lat;lon;timestamp;temperature;humidity
12849;DHT22;6493;50.928;7.172;2023-05-07T00:04:36;12.30;57.80
12849;DHT22;6493;50.928;7.172;2023-05-07T00:09:41;12.30;57.90
12849;DHT22;6493;50.928;7.172;2023-05-07T00:14:44;12.20;57.80
12849;DHT22;6493;50.928;7.172;2023-05-07T00:19:49;12.20;57.90
12849;DHT22;6493;50.928;7.172;2023-05-07T00:24:53;12.20;57.90
12849;DHT22;6493;50.928;7.172;2023-05-07T00:29:57;12.10;57.80
12849;DHT22;6493;50.928;7.172;2023-05-07T00:35:01;12.00;57.70
12849;DHT22;6493;50.928;7.172;2023-05-07T00:40:06;11.90;57.90
12849;DHT22;6493;50.928;7.172;2023-05-07T00:45:11;11.90;58.00
12849;DHT22;6493;50.928;7.172;2023-05-07T00:50:16;11.90;58.10
12849;DHT22;6493;50.928;7.172;2023-05-07T00:55:22;11.90;58.10
12849;DHT22;6493;50.928;7.172;2023-05-07T01:00:25;11.90;58.20
12849;DHT22;6493;50.928;7.172;2023-05-07T01:05:30;12.00;58.20
12849;DHT22;6493;50.928;7.172;2023-05-07T01:10:35;11.90;58.20
12849;DHT22;6493;50.928;7.172;2023-05-07T01:15:39;11.90;58.20
12849;DHT22;6493;50.928;7.172;2023-05-07T01:20:45;11.90;58.20
12849;DHT22;6493;50.928;7.172;2023-05-07T01:25:53;11.90;58.20
12849;DHT22;6493;50.928;7.172;2023-05-07T01:31:01;11.90;58.30
12849;DHT22;6493;50.928;7.172;2023-05-07T01:36:07;11.90;58.30
12849;DHT22;6493;50.928;7.172;2023-05-07T01:41:13;11.90;58.30
12849;DHT22;6493;50.928;7.172;2023-05-07T01:46:17;11.80;58.80
12849;DHT22;6493;50.928;7.172;2023-05-07T01:51:22;11.80;58.30
12849;DHT22;6493;50.928;7.172;2023-05-07T01:56:27;11.80;58.40
12849;DHT22;6493;50.928;7.172;2023-05-07T02:01:32;11.80;58.40
12849;DHT22;6493;50.928;7.172;2023-05-07T02:06:36;11.80;58.50
12849;DHT22;6493;50.928;7.172;2023-05-07T02:11:44;11.80;58.50
12849;DHT22;6493;50.928;7.172;2023-05-07T02:16:48;11.80;58.60
12849;DHT22;6493;50.928;7.172;2023-05-07T02:21:52;11.80;58.60
12849;DHT22;6493;50.928;7.172;2023-05-07T02:27:05;11.70;58.60
12849;DHT22;6493;50.928;7.172;2023-05-07T02:32:09;11.60;58.50
12849;DHT22;6493;50.928;7.172;2023-05-07T02:37:13;11.50;58.80
12849;DHT22;6493;50.928;7.172;2023-05-07T02:42:19;11.50;59.00
12849;DHT22;6493;50.928;7.172;2023-05-07T02:47:22;11.40;58.90
12849;DHT22;6493;50.928;7.172;2023-05-07T02:52:26;11.40;58.90
12849;DHT22;6493;50.928;7.172;2023-05-07T02:57:31;11.40;59.00
12849;DHT22;6493;50.928;7.172;2023-05-07T03:02:35;11.40;59.00
12849;DHT22;6493;50.928;7.172;2023-05-07T03:07:38;11.40;59.00
12849;DHT22;6493;50.928;7.172;2023-05-07T03:12:44;11.40;59.00
12849;DHT22;6493;50.928;7.172;2023-05-07T03:17:51;11.40;59.00
12849;DHT22;6493;50.928;7.172;2023-05-07T03:22:55;11.40;59.00
12849;DHT22;6493;50.928;7.172;2023-05-07T03:28:00;11.40;59.00
12849;DHT22;6493;50.928;7.172;2023-05-07T03:33:12;11.50;59.10
12849;DHT22;6493;50.928;7.172;2023-05-07T03:38:16;11.40;59.00
12849;DHT22;6493;50.928;7.172;2023-05-07T03:43:21;11.40;59.00
12849;DHT22;6493;50.928;7.172;2023-05-07T03:48:32;11.40;59.60
12849;DHT22;6493;50.928;7.172;2023-05-07T03:53:36;11.40;59.00
12849;DHT22;6493;50.928;7.172;2023-05-07T03:58:41;11.30;59.00
12849;DHT22;6493;50.928;7.172;2023-05-07T04:03:46;11.30;59.10
12849;DHT22;6493;50.928;7.172;2023-05-07T04:08:50;11.20;59.10
12849;DHT22;6493;50.928;7.172;2023-05-07T04:13:55;11.20;59.20
12849;DHT22;6493;50.928;7.172;2023-05-07T04:18:59;11.20;59.30
12849;DHT22;6493;50.928;7.172;2023-05-07T04:24:03;11.20;59.30
12849;DHT22;6493;50.928;7.172;2023-05-07T04:29:09;11.20;59.40
12849;DHT22;6493;50.928;7.172;2023-05-07T04:34:14;11.20;59.50
12849;DHT22;6493;50.928;7.172;2023-05-07T04:39:17;11.20;59.60
12849;DHT22;6493;50.928;7.172;2023-05-07T04:44:25;11.20;59.70
12849;DHT22;6493;50.928;7.172;2023-05-07T04:49:30;11.40;60.10
12849;DHT22;6493;50.928;7.172;2023-05-07T04:54:34;11.50;59.90
12849;DHT22;6493;50.928;7.172;2023-05-07T04:59:39;11.60;60.00
12849;DHT22;6493;50.928;7.172;2023-05-07T05:04:43;11.60;60.00
12849;DHT22;6493;50.928;7.172;2023-05-07T05:09:47;11.70;60.00
12849;DHT22;6493;50.928;7.172;2023-05-07T05:14:52;11.80;60.20
12849;DHT22;6493;50.928;7.172;2023-05-07T05:19:56;12.00;60.70
12849;DHT22;6493;50.928;7.172;2023-05-07T05:25:00;12.10;60.40
12849;DHT22;6493;50.928;7.172;2023-05-07T05:30:06;12.10;60.10
12849;DHT22;6493;50.928;7.172;2023-05-07T05:35:11;12.10;60.00
12849;DHT22;6493;50.928;7.172;2023-05-07T05:40:17;12.10;60.20
12849;DHT22;6493;50.928;7.172;2023-05-07T05:45:23;12.10;60.00
12849;DHT22;6493;50.928;7.172;2023-05-07T05:50:27;12.10;60.20
12849;DHT22;6493;50.928;7.172;2023-05-07T05:55:30;12.10;60.50
12849;DHT22;6493;50.928;7.172;2023-05-07T06:00:36;12.00;60.10
12849;DHT22;6493;50.928;7.172;2023-05-07T06:05:41;12.00;60.40
12849;DHT22;6493;50.928;7.172;2023-05-07T06:10:45;12.00;60.40
12849;DHT22;6493;50.928;7.172;2023-05-07T06:15:51;12.10;60.40
12849;DHT22;6493;50.928;7.172;2023-05-07T06:20:55;12.10;60.50
12849;DHT22;6493;50.928;7.172;2023-05-07T06:26:02;12.20;60.60
12849;DHT22;6493;50.928;7.172;2023-05-07T06:31:15;12.20;60.60
12849;DHT22;6493;50.928;7.172;2023-05-07T06:36:25;12.20;60.60
12849;DHT22;6493;50.928;7.172;2023-05-07T06:41:32;12.30;60.80
12849;DHT22;6493;50.928;7.172;2023-05-07T06:46:43;12.30;61.10
12849;DHT22;6493;50.928;7.172;2023-05-07T06:51:48;12.40;60.90
12849;DHT22;6493;50.928;7.172;2023-05-07T06:56:51;12.50;61.20
12849;DHT22;6493;50.928;7.172;2023-05-07T07:01:58;12.60;61.40
12849;DHT22;6493;50.928;7.172;2023-05-07T07:07:02;12.80;61.60
12849;DHT22;6493;50.928;7.172;2023-05-07T07:12:06;12.90;62.00
12849;DHT22;6493;50.928;7.172;2023-05-07T07:17:14;13.20;62.30
12849;DHT22;6493;50.928;7.172;2023-05-07T07:22:18;13.50;62.20
12849;DHT22;6493;50.928;7.172;2023-05-07T07:27:22;13.80;62.40
12849;DHT22;6493;50.928;7.172;2023-05-07T07:32:27;14.10;62.20
12849;DHT22;6493;50.928;7.172;2023-05-07T07:37:30;14.30;62.30
12849;DHT22;6493;50.928;7.172;2023-05-07T07:42:34;14.60;62.00
12849;DHT22;6493;50.928;7.172;2023-05-07T07:47:39;14.80;61.50
12849;DHT22;6493;50.928;7.172;2023-05-07T07:52:44;14.90;60.60
12849;DHT22;6493;50.928;7.172;2023-05-07T07:57:50;15.00;60.00
12849;DHT22;6493;50.928;7.172;2023-05-07T08:02:55;15.00;60.10
12849;DHT22;6493;50.928;7.172;2023-05-07T08:08:04;15.20;60.70
12849;DHT22;6493;50.928;7.172;2023-05-07T08:13:10;15.40;60.70
12849;DHT22;6493;50.928;7.172;2023-05-07T08:18:16;15.60;61.00
12849;DHT22;6493;50.928;7.172;2023-05-07T08:23:20;15.90;60.70
12849;DHT22;6493;50.928;7.172;2023-05-07T08:28:25;16.10;60.50
12849;DHT22;6493;50.928;7.172;2023-05-07T08:33:30;16.40;60.40
12849;DHT22;6493;50.928;7.172;2023-05-07T08:38:34;16.60;60.30
12849;DHT22;6493;50.928;7.172;2023-05-07T08:43:38;16.80;60.00
12849;DHT22;6493;50.928;7.172;2023-05-07T08:48:48;17.10;59.70
12849;DHT22;6493;50.928;7.172;2023-05-07T08:53:51;17.20;58.90
12849;DHT22;6493;50.928;7.172;2023-05-07T08:59:03;17.20;58.10
12849;DHT22;6493;50.928;7.172;2023-05-07T09:04:08;17.10;58.30
12849;DHT22;6493;50.928;7.172;2023-05-07T09:09:14;17.10;58.30
12849;DHT22;6493;50.928;7.172;2023-05-07T09:14:21;17.10;58.10
12849;DHT22;6493;50.928;7.172;2023-05-07T09:19:27;17.10;58.20
12849;DHT22;6493;50.928;7.172;2023-05-07T09:24:34;17.20;58.10
12849;DHT22;6493;50.928;7.172;2023-05-07T09:29:43;17.30;58.40
12849;DHT22;6493;50.928;7.172;2023-05-07T09:34:49;17.50;58.40
12849;DHT22;6493;50.928;7.172;2023-05-07T09:39:57;17.80;58.60
12849;DHT22;6493;50.928;7.172;2023-05-07T09:45:05;18.10;58.50
12849;DHT22;6493;50.928;7.172;2023-05-07T09:50:15;18.30;57.60
12849;DHT22;6493;50.928;7.172;2023-05-07T09:55:20;18.60;58.10
12849;DHT22;6493;50.928;7.172;2023-05-07T10:00:25;18.80;57.20
12849;DHT22;6493;50.928;7.172;2023-05-07T10:05:40;19.00;56.70
12849;DHT22;6493;50.928;7.172;2023-05-07T10:10:47;19.20;55.80
12849;DHT22;6493;50.928;7.172;2023-05-07T10:15:57;19.40;56.70
12849;DHT22;6493;50.928;7.172;2023-05-07T10:21:15;19.50;56.70
12849;DHT22;6493;50.928;7.172;2023-05-07T10:26:21;19.60;55.50
12849;DHT22;6493;50.928;7.172;2023-05-07T10:31:44;19.60;55.60
12849;DHT22;6493;50.928;7.172;2023-05-07T10:36:54;19.50;55.10
12849;DHT22;6493;50.928;7.172;2023-05-07T10:42:08;19.50;55.70
12849;DHT22;6493;50.928;7.172;2023-05-07T10:47:14;19.50;54.40
12849;DHT22;6493;50.928;7.172;2023-05-07T10:52:23;19.50;55.00
12849;DHT22;6493;50.928;7.172;2023-05-07T10:57:44;19.40;54.70
12849;DHT22;6493;50.928;7.172;2023-05-07T11:03:06;19.40;55.20
12849;DHT22;6493;50.928;7.172;2023-05-07T11:08:52;19.70;54.80
12849;DHT22;6493;50.928;7.172;2023-05-07T11:14:00;19.90;54.80
12849;DHT22;6493;50.928;7.172;2023-05-07T11:19:13;20.20;54.60
12849;DHT22;6493;50.928;7.172;2023-05-07T11:24:23;20.40;54.10
12849;DHT22;6493;50.928;7.172;2023-05-07T11:29:34;20.60;53.70
12849;DHT22;6493;50.928;7.172;2023-05-07T11:34:42;20.70;53.90
12849;DHT22;6493;50.928;7.172;2023-05-07T11:39:49;20.80;53.00
12849;DHT22;6493;50.928;7.172;2023-05-07T11:44:56;20.90;51.50
12849;DHT22;6493;50.928;7.172;2023-05-07T11:50:04;20.90;51.50
12849;DHT22;6493;50.928;7.172;2023-05-07T11:55:09;21.00;51.00
12849;DHT22;6493;50.928;7.172;2023-05-07T12:00:16;21.00;52.10
12849;DHT22;6493;50.928;7.172;2023-05-07T12:05:19;21.10;49.90
12849;DHT22;6493;50.928;7.172;2023-05-07T12:10:24;21.10;51.30
12849;DHT22;6493;50.928;7.172;2023-05-07T12:15:28;21.10;51.50
12849;DHT22;6493;50.928;7.172;2023-05-07T12:20:31;21.20;51.40
12849;DHT22;6493;50.928;7.172;2023-05-07T12:25:37;21.20;51.70
12849;DHT22;6493;50.928;7.172;2023-05-07T12:30:42;21.20;51.10
12849;DHT22;6493;50.928;7.172;2023-05-07T12:35:47;21.20;50.90
12849;DHT22;6493;50.928;7.172;2023-05-07T12:40:55;21.00;50.70
12849;DHT22;6493;50.928;7.172;2023-05-07T12:46:00;20.90;50.60
12849;DHT22;6493;50.928;7.172;2023-05-07T12:51:05;20.80;50.90
12849;DHT22;6493;50.928;7.172;2023-05-07T12:56:11;20.70;50.20
12849;DHT22;6493;50.928;7.172;2023-05-07T13:01:15;20.60;49.50
12849;DHT22;6493;50.928;7.172;2023-05-07T13:06:21;20.50;49.70
12849;DHT22;6493;50.928;7.172;2023-05-07T13:11:26;20.40;49.70
12849;DHT22;6493;50.928;7.172;2023-05-07T13:16:30;20.30;50.00
12849;DHT22;6493;50.928;7.172;2023-05-07T13:21:33;20.20;50.20
12849;DHT22;6493;50.928;7.172;2023-05-07T13:26:38;20.20;50.10
12849;DHT22;6493;50.928;7.172;2023-05-07T13:31:42;20.10;49.80
12849;DHT22;6493;50.928;7.172;2023-05-07T13:36:46;20.10;49.90
12849;DHT22;6493;50.928;7.172;2023-05-07T13:41:51;20.20;50.20
12849;DHT22;6493;50.928;7.172;2023-05-07T13:46:54;20.20;50.20
12849;DHT22;6493;50.928;7.172;2023-05-07T13:51:58;20.30;50.20
12849;DHT22;6493;50.928;7.172;2023-05-07T13:57:03;20.40;50.10
12849;DHT22;6493;50.928;7.172;2023-05-07T14:02:06;20.40;49.90
12849;DHT22;6493;50.928;7.172;2023-05-07T14:07:11;20.40;48.90
12849;DHT22;6493;50.928;7.172;2023-05-07T14:12:16;20.30;49.40
12849;DHT22;6493;50.928;7.172;2023-05-07T14:17:19;20.10;49.40
12849;DHT22;6493;50.928;7.172;2023-05-07T14:22:25;20.00;49.50
12849;DHT22;6493;50.928;7.172;2023-05-07T14:27:30;20.00;50.00
12849;DHT22;6493;50.928;7.172;2023-05-07T14:32:34;20.00;50.30
12849;DHT22;6493;50.928;7.172;2023-05-07T14:37:37;19.90;50.30
12849;DHT22;6493;50.928;7.172;2023-05-07T14:42:42;19.90;50.50
12849;DHT22;6493;50.928;7.172;2023-05-07T14:47:45;19.70;50.50
12849;DHT22;6493;50.928;7.172;2023-05-07T14:52:49;19.60;50.40
12849;DHT22;6493;50.928;7.172;2023-05-07T14:57:55;19.40;50.60
12849;DHT22;6493;50.928;7.172;2023-05-07T15:03:05;19.10;50.60
12849;DHT22;6493;50.928;7.172;2023-05-07T15:08:10;18.90;50.80
12849;DHT22;6493;50.928;7.172;2023-05-07T15:13:14;18.80;50.90
12849;DHT22;6493;50.928;7.172;2023-05-07T15:18:18;18.60;50.90
12849;DHT22;6493;50.928;7.172;2023-05-07T15:23:24;18.40;50.60
12849;DHT22;6493;50.928;7.172;2023-05-07T15:28:29;18.20;50.40
12849;DHT22;6493;50.928;7.172;2023-05-07T15:33:34;17.90;50.40
12849;DHT22;6493;50.928;7.172;2023-05-07T15:38:38;17.70;50.40
12849;DHT22;6493;50.928;7.172;2023-05-07T15:43:47;17.60;50.60
12849;DHT22;6493;50.928;7.172;2023-05-07T15:48:51;17.50;50.70
12849;DHT22;6493;50.928;7.172;2023-05-07T15:53:55;17.40;51.10
12849;DHT22;6493;50.928;7.172;2023-05-07T15:59:00;17.30;51.40
12849;DHT22;6493;50.928;7.172;2023-05-07T16:04:06;17.20;51.80
12849;DHT22;6493;50.928;7.172;2023-05-07T16:09:09;17.00;52.00
12849;DHT22;6493;50.928;7.172;2023-05-07T16:14:14;16.80;52.10
12849;DHT22;6493;50.928;7.172;2023-05-07T16:19:18;16.70;52.50
12849;DHT22;6493;50.928;7.172;2023-05-07T16:24:22;16.50;52.50
12849;DHT22;6493;50.928;7.172;2023-05-07T16:29:26;16.50;52.80
12849;DHT22;6493;50.928;7.172;2023-05-07T16:34:30;16.50;52.90
12849;DHT22;6493;50.928;7.172;2023-05-07T16:39:34;16.50;53.10
12849;DHT22;6493;50.928;7.172;2023-05-07T16:44:39;16.40;53.30
12849;DHT22;6493;50.928;7.172;2023-05-07T16:49:42;16.40;53.40
12849;DHT22;6493;50.928;7.172;2023-05-07T16:54:46;16.40;53.50
12849;DHT22;6493;50.928;7.172;2023-05-07T16:59:51;16.40;53.50
12849;DHT22;6493;50.928;7.172;2023-05-07T17:04:55;16.50;53.80
12849;DHT22;6493;50.928;7.172;2023-05-07T17:09:58;16.50;53.70
12849;DHT22;6493;50.928;7.172;2023-05-07T17:15:04;16.50;53.70
12849;DHT22;6493;50.928;7.172;2023-05-07T17:20:09;16.50;53.50
12849;DHT22;6493;50.928;7.172;2023-05-07T17:25:13;16.50;53.40
12849;DHT22;6493;50.928;7.172;2023-05-07T17:30:18;16.50;53.40
12849;DHT22;6493;50.928;7.172;2023-05-07T17:35:21;16.40;53.30
12849;DHT22;6493;50.928;7.172;2023-05-07T17:40:25;16.40;53.30
12849;DHT22;6493;50.928;7.172;2023-05-07T17:45:32;16.40;53.40
12849;DHT22;6493;50.928;7.172;2023-05-07T17:50:36;16.30;53.40
12849;DHT22;6493;50.928;7.172;2023-05-07T17:55:42;16.40;53.60
12849;DHT22;6493;50.928;7.172;2023-05-07T18:00:48;16.40;53.70
12849;DHT22;6493;50.928;7.172;2023-05-07T18:05:51;16.50;53.70
12849;DHT22;6493;50.928;7.172;2023-05-07T18:10:55;16.60;53.80
12849;DHT22;6493;50.928;7.172;2023-05-07T18:16:00;16.60;53.80
12849;DHT22;6493;50.928;7.172;2023-05-07T18:21:03;16.60;53.90
12849;DHT22;6493;50.928;7.172;2023-05-07T18:26:07;16.50;53.80
12849;DHT22;6493;50.928;7.172;2023-05-07T18:31:12;16.50;54.10
12849;DHT22;6493;50.928;7.172;2023-05-07T18:36:15;16.40;54.30
12849;DHT22;6493;50.928;7.172;2023-05-07T18:41:19;16.20;54.10
12849;DHT22;6493;50.928;7.172;2023-05-07T18:46:24;16.10;54.20
12849;DHT22;6493;50.928;7.172;2023-05-07T18:51:30;16.00;54.20
12849;DHT22;6493;50.928;7.172;2023-05-07T18:56:33;15.90;54.20
12849;DHT22;6493;50.928;7.172;2023-05-07T19:01:39;15.90;54.30
12849;DHT22;6493;50.928;7.172;2023-05-07T19:06:42;15.80;54.40
12849;DHT22;6493;50.928;7.172;2023-05-07T19:11:46;15.80;54.50
12849;DHT22;6493;50.928;7.172;2023-05-07T19:16:51;15.70;54.50
12849;DHT22;6493;50.928;7.172;2023-05-07T19:21:55;15.60;54.50
12849;DHT22;6493;50.928;7.172;2023-05-07T19:26:58;15.60;54.60
12849;DHT22;6493;50.928;7.172;2023-05-07T19:32:04;15.50;54.70
12849;DHT22;6493;50.928;7.172;2023-05-07T19:37:08;15.50;54.90
12849;DHT22;6493;50.928;7.172;2023-05-07T19:42:12;15.40;55.00
12849;DHT22;6493;50.928;7.172;2023-05-07T19:47:17;15.30;55.20
12849;DHT22;6493;50.928;7.172;2023-05-07T19:52:21;15.20;55.30
12849;DHT22;6493;50.928;7.172;2023-05-07T19:57:25;15.20;55.40
12849;DHT22;6493;50.928;7.172;2023-05-07T20:02:30;15.10;55.90
12849;DHT22;6493;50.928;7.172;2023-05-07T20:07:34;15.00;56.20
12849;DHT22;6493;50.928;7.172;2023-05-07T20:12:38;14.90;56.20
12849;DHT22;6493;50.928;7.172;2023-05-07T20:17:43;14.80;56.40
12849;DHT22;6493;50.928;7.172;2023-05-07T20:22:47;14.70;56.50
12849;DHT22;6493;50.928;7.172;2023-05-07T20:27:50;14.60;57.20
12849;DHT22;6493;50.928;7.172;2023-05-07T20:32:55;14.50;56.80
12849;DHT22;6493;50.928;7.172;2023-05-07T20:37:59;14.50;56.70
12849;DHT22;6493;50.928;7.172;2023-05-07T20:43:05;14.40;56.80
12849;DHT22;6493;50.928;7.172;2023-05-07T20:48:10;14.40;56.70
12849;DHT22;6493;50.928;7.172;2023-05-07T20:53:14;14.40;56.80
12849;DHT22;6493;50.928;7.172;2023-05-07T20:58:18;14.40;56.90
12849;DHT22;6493;50.928;7.172;2023-05-07T21:03:23;14.30;57.00
12849;DHT22;6493;50.928;7.172;2023-05-07T21:08:26;14.30;57.00
12849;DHT22;6493;50.928;7.172;2023-05-07T21:13:30;14.30;57.00
12849;DHT22;6493;50.928;7.172;2023-05-07T21:18:35;14.20;57.00
12849;DHT22;6493;50.928;7.172;2023-05-07T21:23:39;14.20;57.00
12849;DHT22;6493;50.928;7.172;2023-05-07T21:28:42;14.20;57.10
12849;DHT22;6493;50.928;7.172;2023-05-07T21:33:47;14.20;57.10
12849;DHT22;6493;50.928;7.172;2023-05-07T21:38:51;14.10;57.40
12849;DHT22;6493;50.928;7.172;2023-05-07T21:43:54;14.10;57.40
12849;DHT22;6493;50.928;7.172;2023-05-07T21:48:59;14.00;57.10
12849;DHT22;6493;50.928;7.172;2023-05-07T21:54:03;14.00;57.30
12849;DHT22;6493;50.928;7.172;2023-05-07T21:59:07;13.90;57.30
12849;DHT22;6493;50.928;7.172;2023-05-07T22:04:12;13.80;57.30
12849;DHT22;6493;50.928;7.172;2023-05-07T22:09:16;13.70;57.50
12849;DHT22;6493;50.928;7.172;2023-05-07T22:14:21;13.60;57.50
12849;DHT22;6493;50.928;7.172;2023-05-07T22:19:26;13.50;57.70
12849;DHT22;6493;50.928;7.172;2023-05-07T22:24:29;13.40;58.20
12849;DHT22;6493;50.928;7.172;2023-05-07T22:29:33;13.30;58.30
12849;DHT22;6493;50.928;7.172;2023-05-07T22:34:38;13.20;58.30
12849;DHT22;6493;50.928;7.172;2023-05-07T22:39:42;13.20;58.50
12849;DHT22;6493;50.928;7.172;2023-05-07T22:44:45;13.10;58.60
12849;DHT22;6493;50.928;7.172;2023-05-07T22:49:50;13.00;58.60
12849;DHT22;6493;50.928;7.172;2023-05-07T22:54:54;13.00;58.60
12849;DHT22;6493;50.928;7.172;2023-05-07T22:59:57;13.00;59.10
12849;DHT22;6493;50.928;7.172;2023-05-07T23:05:03;13.00;58.80
12849;DHT22;6493;50.928;7.172;2023-05-07T23:10:07;12.90;58.90
12849;DHT22;6493;50.928;7.172;2023-05-07T23:15:11;12.90;59.00
12849;DHT22;6493;50.928;7.172;2023-05-07T23:20:16;12.80;59.20
12849;DHT22;6493;50.928;7.172;2023-05-07T23:25:20;12.80;59.30
12849;DHT22;6493;50.928;7.172;2023-05-07T23:30:23;12.70;59.10
12849;DHT22;6493;50.928;7.172;2023-05-07T23:35:28;12.70;59.30
12849;DHT22;6493;50.928;7.172;2023-05-07T23:40:32;12.80;59.40
12849;DHT22;6493;50.928;7.172;2023-05-07T23:45:35;12.80;59.40
12849;DHT22;6493;50.928;7.172;2023-05-07T23:50:40;12.90;59.50
12849;DHT22;6493;50.928;7.172;2023-05-07T23:55:44;13.00;60.20
